createdAt,value
2022-11-26T00:02:23.714Z,5.70
2022-11-26T00:04:51.802Z,5.60
2022-11-26T00:07:26.716Z,5.50
2022-11-26T00:09:55.276Z,5.40
2022-11-26T00:12:27.368Z,5.40
2022-11-26T00:14:55.071Z,5.40
2022-11-26T00:17:22.336Z,5.20
2022-11-26T00:19:49.597Z,5.30
2022-11-26T00:22:25.468Z,5.30
2022-11-26T00:24:53.411Z,5.20
2022-11-26T00:27:21.060Z,5.30
2022-11-26T00:29:48.021Z,5.30
2022-11-26T00:32:23.872Z,5.30
2022-11-26T00:34:50.924Z,5.40
2022-11-26T00:37:32.220Z,5.40
2022-11-26T00:39:59.210Z,5.40
2022-11-26T00:42:26.124Z,5.50
2022-11-26T00:44:53.262Z,5.50
2022-11-26T00:47:20.177Z,5.50
2022-11-26T00:49:47.085Z,5.50
2022-11-26T00:52:33.957Z,5.50
2022-11-26T00:55:06.316Z,5.50
2022-11-26T00:57:33.417Z,5.50
2022-11-26T01:00:00.308Z,5.50
2022-11-26T01:02:27.335Z,5.50
2022-11-26T01:04:54.305Z,5.40
2022-11-26T01:07:21.298Z,5.40
2022-11-26T01:09:48.519Z,5.50
2022-11-26T01:12:15.638Z,5.50
2022-11-26T01:14:42.542Z,5.50
2022-11-26T01:17:12.065Z,5.60
2022-11-26T01:19:38.988Z,5.70
2022-11-26T01:22:05.949Z,5.70
2022-11-26T01:24:32.908Z,5.70
2022-11-26T01:26:59.877Z,5.70
2022-11-26T01:29:26.791Z,5.70
2022-11-26T01:31:53.867Z,5.70
2022-11-26T01:34:20.824Z,5.70
2022-11-26T01:36:47.847Z,5.70
2022-11-26T01:39:17.004Z,5.70
2022-11-26T01:41:57.927Z,5.70
2022-11-26T01:44:28.547Z,5.70
2022-11-26T01:46:57.453Z,5.70
2022-11-26T01:49:33.448Z,5.70
2022-11-26T01:52:23.843Z,5.70
2022-11-26T01:54:53.240Z,5.80
2022-11-26T01:57:26.841Z,5.80
2022-11-26T01:59:57.823Z,5.70
2022-11-26T02:02:27.371Z,5.70
2022-11-26T02:05:00.222Z,5.70
2022-11-26T02:07:27.440Z,5.80
2022-11-26T02:09:54.517Z,5.80
2022-11-26T02:12:21.737Z,5.80
2022-11-26T02:14:48.997Z,5.80
2022-11-26T02:17:31.017Z,5.80
2022-11-26T02:20:03.747Z,5.80
2022-11-26T02:22:36.476Z,5.80
2022-11-26T02:25:40.923Z,5.80
2022-11-26T02:28:37.118Z,5.80
2022-11-26T02:31:12.993Z,5.80
2022-11-26T02:33:53.745Z,5.80
2022-11-26T02:36:35.201Z,5.80
2022-11-26T02:39:19.751Z,5.80
2022-11-26T02:41:52.393Z,5.80
2022-11-26T02:44:26.420Z,5.80
2022-11-26T02:47:02.940Z,5.80
2022-11-26T02:49:31.420Z,5.80
2022-11-26T02:52:01.352Z,5.80
2022-11-26T02:54:32.140Z,5.80
2022-11-26T02:57:02.102Z,5.80
2022-11-26T02:59:29.766Z,5.90
2022-11-26T03:02:03.262Z,5.90
2022-11-26T03:04:44.068Z,5.90
2022-11-26T03:07:14.820Z,5.90
2022-11-26T03:09:58.716Z,5.90
2022-11-26T03:12:26.713Z,5.90
2022-11-26T03:14:53.954Z,5.80
2022-11-26T03:17:21.159Z,5.70
2022-11-26T03:19:49.091Z,5.70
2022-11-26T03:22:16.472Z,5.70
2022-11-26T03:24:43.493Z,5.60
2022-11-26T03:27:10.490Z,5.70
2022-11-26T03:29:37.440Z,5.70
2022-11-26T03:32:04.795Z,5.70
2022-11-26T03:34:31.925Z,5.70
2022-11-26T03:36:58.951Z,5.70
2022-11-26T03:39:25.904Z,5.70
2022-11-26T03:41:52.869Z,5.80
2022-11-26T03:44:19.896Z,5.70
2022-11-26T03:46:46.840Z,5.80
2022-11-26T03:49:13.781Z,5.80
2022-11-26T03:51:40.697Z,5.80
2022-11-26T03:54:07.678Z,5.80
2022-11-26T03:56:34.633Z,5.80
2022-11-26T03:59:01.571Z,5.90
2022-11-26T04:01:28.931Z,5.80
2022-11-26T04:03:56.098Z,5.80
2022-11-26T04:06:23.157Z,5.80
2022-11-26T04:08:50.267Z,5.70
2022-11-26T04:11:17.226Z,5.70
2022-11-26T04:13:44.400Z,5.70
2022-11-26T04:16:11.478Z,5.70
2022-11-26T04:18:38.462Z,5.70
2022-11-26T04:21:09.228Z,5.70
2022-11-26T04:23:36.856Z,5.70
2022-11-26T04:26:04.577Z,5.70
2022-11-26T04:28:31.662Z,5.70
2022-11-26T04:30:58.741Z,5.60
2022-11-26T04:33:28.729Z,5.70
2022-11-26T04:35:56.260Z,5.70
2022-11-26T04:38:25.937Z,5.70
2022-11-26T04:40:53.552Z,5.60
2022-11-26T04:43:20.565Z,5.60
2022-11-26T04:45:47.613Z,5.60
2022-11-26T04:48:14.752Z,5.60
2022-11-26T04:50:41.678Z,5.60
2022-11-26T04:53:08.665Z,5.60
2022-11-26T04:55:35.638Z,5.60
2022-11-26T04:58:02.697Z,5.60
2022-11-26T05:00:29.654Z,5.70
2022-11-26T05:02:56.742Z,5.70
2022-11-26T05:05:23.769Z,5.70
2022-11-26T05:07:50.815Z,5.70
2022-11-26T05:10:17.861Z,5.70
2022-11-26T05:12:44.888Z,5.80
2022-11-26T05:15:12.133Z,5.80
2022-11-26T05:17:39.218Z,5.80
2022-11-26T05:20:07.069Z,5.80
2022-11-26T05:22:34.020Z,5.80
2022-11-26T05:25:01.028Z,5.80
2022-11-26T05:27:27.943Z,5.80
2022-11-26T05:29:54.923Z,5.80
2022-11-26T05:32:21.871Z,5.80
2022-11-26T05:34:48.967Z,5.80
2022-11-26T05:37:15.877Z,5.70
2022-11-26T05:39:42.925Z,5.60
2022-11-26T05:42:10.040Z,5.50
2022-11-26T05:44:38.317Z,5.50
2022-11-26T05:47:05.645Z,5.50
2022-11-26T05:49:32.742Z,5.40
2022-11-26T05:52:00.171Z,5.30
2022-11-26T05:54:27.110Z,5.20
2022-11-26T05:56:58.623Z,5.20
2022-11-26T05:59:27.889Z,5.20
2022-11-26T06:01:55.227Z,5.20
2022-11-26T06:04:22.279Z,5.30
2022-11-26T06:06:49.224Z,5.30
2022-11-26T06:09:16.407Z,5.40
2022-11-26T06:11:43.367Z,5.40
2022-11-26T06:14:10.701Z,5.40
2022-11-26T06:16:37.917Z,5.40
2022-11-26T06:19:04.970Z,5.40
2022-11-26T06:21:32.020Z,5.30
2022-11-26T06:23:59.881Z,5.40
2022-11-26T06:26:27.610Z,5.40
2022-11-26T06:28:54.694Z,5.40
2022-11-26T06:31:21.968Z,5.50
2022-11-26T06:33:58.498Z,5.50
2022-11-26T06:36:25.539Z,5.50
2022-11-26T06:38:52.562Z,5.50
2022-11-26T06:41:19.573Z,5.60
2022-11-26T06:43:46.562Z,5.60
2022-11-26T06:46:16.262Z,5.60
2022-11-26T06:48:43.394Z,5.60
2022-11-26T06:51:12.995Z,5.60
2022-11-26T06:53:40.182Z,5.60
2022-11-26T06:56:19.174Z,5.60
2022-11-26T06:58:47.810Z,5.60
2022-11-26T07:01:20.215Z,5.60
2022-11-26T07:03:47.623Z,5.60
2022-11-26T07:06:25.138Z,5.60
2022-11-26T07:08:53.691Z,5.70
2022-11-26T07:11:21.843Z,5.70
2022-11-26T07:13:48.927Z,5.70
2022-11-26T07:16:16.636Z,5.80
2022-11-26T07:18:47.381Z,5.80
2022-11-26T07:21:14.352Z,5.80
2022-11-26T07:23:41.658Z,5.80
2022-11-26T07:26:09.881Z,5.80
2022-11-26T07:28:37.128Z,5.80
2022-11-26T07:31:10.299Z,5.80
2022-11-26T07:33:40.055Z,5.80
2022-11-26T07:36:11.374Z,5.80
2022-11-26T07:38:38.279Z,5.80
2022-11-26T07:41:07.742Z,5.90
2022-11-26T07:43:35.732Z,5.90
2022-11-26T07:46:05.668Z,5.90
2022-11-26T07:48:34.518Z,5.90
2022-11-26T07:51:02.448Z,6.00
2022-11-26T07:53:31.735Z,6.00
2022-11-26T07:55:58.749Z,6.00
2022-11-26T07:58:26.892Z,6.10
2022-11-26T08:00:54.978Z,6.10
2022-11-26T08:03:22.186Z,6.10
2022-11-26T08:05:49.238Z,6.10
2022-11-26T08:08:16.193Z,6.20
2022-11-26T08:10:43.246Z,6.20
2022-11-26T08:13:10.137Z,6.20
2022-11-26T08:15:37.825Z,6.20
2022-11-26T08:18:04.910Z,6.20
2022-11-26T08:20:31.858Z,6.30
2022-11-26T08:22:58.880Z,6.20
2022-11-26T08:25:25.916Z,6.20
2022-11-26T08:27:53.398Z,6.20
2022-11-26T08:30:20.409Z,6.30
2022-11-26T08:32:47.426Z,6.30
2022-11-26T08:35:14.442Z,6.40
2022-11-26T08:37:42.629Z,6.40
2022-11-26T08:40:11.950Z,6.50
2022-11-26T08:42:40.903Z,6.50
2022-11-26T08:45:08.429Z,6.50
2022-11-26T08:47:35.346Z,6.60
2022-11-26T08:50:02.508Z,6.60
2022-11-26T08:52:29.494Z,6.60
2022-11-26T08:54:56.433Z,6.60
2022-11-26T08:57:23.353Z,6.70
2022-11-26T08:59:52.003Z,6.70
2022-11-26T09:02:19.197Z,6.70
2022-11-26T09:04:46.411Z,6.70
2022-11-26T09:07:13.508Z,6.70
2022-11-26T09:09:40.654Z,6.70
2022-11-26T09:12:08.020Z,6.70
2022-11-26T09:14:40.909Z,6.70
2022-11-26T09:17:10.032Z,6.70
2022-11-26T09:19:37.111Z,6.80
2022-11-26T09:22:04.471Z,6.70
2022-11-26T09:24:31.484Z,6.70
2022-11-26T09:27:01.597Z,6.70
2022-11-26T09:29:32.930Z,6.70
2022-11-26T09:32:22.644Z,6.70
2022-11-26T09:34:48.144Z,6.70
2022-11-26T09:37:15.146Z,6.70
2022-11-26T09:39:42.035Z,6.80
2022-11-26T09:42:22.032Z,6.80
2022-11-26T09:45:18.353Z,6.90
2022-11-26T09:47:48.680Z,6.90
2022-11-26T09:50:15.546Z,6.90
2022-11-26T09:53:02.591Z,7.00
2022-11-26T09:55:41.823Z,7.00
2022-11-26T09:58:18.993Z,7.10
2022-11-26T10:00:56.462Z,7.20
2022-11-26T10:03:35.247Z,7.20
2022-11-26T10:06:09.267Z,7.30
2022-11-26T10:09:10.186Z,7.40
2022-11-26T10:11:50.848Z,7.40
2022-11-26T10:14:48.947Z,7.40
2022-11-26T10:17:34.355Z,7.40
2022-11-26T10:20:21.854Z,7.40
2022-11-26T10:22:57.401Z,7.30
2022-11-26T10:25:28.416Z,7.30
2022-11-26T10:27:56.854Z,7.30
2022-11-26T10:30:29.079Z,7.30
2022-11-26T10:32:58.482Z,7.20
2022-11-26T10:35:29.178Z,7.20
2022-11-26T10:37:57.544Z,7.20
2022-11-26T10:40:32.202Z,7.30
2022-11-26T10:43:03.974Z,7.40
2022-11-26T10:45:42.925Z,7.40
2022-11-26T10:48:23.909Z,7.30
2022-11-26T10:51:21.260Z,7.40
2022-11-26T10:53:56.406Z,7.30
2022-11-26T10:56:36.865Z,7.30
2022-11-26T10:59:18.257Z,7.20
2022-11-26T11:01:45.465Z,7.30
2022-11-26T11:04:41.587Z,7.40
2022-11-26T11:07:33.792Z,7.50
2022-11-26T11:10:09.949Z,7.70
2022-11-26T11:12:41.967Z,7.70
2022-11-26T11:15:24.885Z,7.60
2022-11-26T11:18:02.599Z,7.50
2022-11-26T11:20:33.024Z,7.50
2022-11-26T11:23:16.967Z,7.50
2022-11-26T11:25:58.370Z,7.50
2022-11-26T11:28:31.465Z,7.60
2022-11-26T11:31:12.381Z,7.60
2022-11-26T11:33:39.852Z,7.70
2022-11-26T11:36:15.875Z,7.80
2022-11-26T11:38:54.705Z,7.90
2022-11-26T11:41:24.671Z,8.10
2022-11-26T11:44:05.931Z,8.20
2022-11-26T11:47:00.639Z,8.30
2022-11-26T11:49:45.682Z,8.30
2022-11-26T11:52:46.204Z,8.40
2022-11-26T11:55:37.672Z,8.40
2022-11-26T11:58:35.581Z,8.50
2022-11-26T12:01:26.615Z,8.50
2022-11-26T12:04:09.070Z,8.50
2022-11-26T12:06:49.609Z,8.40
2022-11-26T12:09:31.575Z,8.30
2022-11-26T12:12:23.195Z,8.20
2022-11-26T12:15:03.306Z,8.20
2022-11-26T12:17:50.789Z,8.20
2022-11-26T12:20:46.556Z,8.20
2022-11-26T12:23:24.577Z,8.20
2022-11-26T12:26:14.621Z,8.20
2022-11-26T12:29:06.674Z,8.20
2022-11-26T12:31:48.780Z,8.20
2022-11-26T12:34:35.922Z,8.20
2022-11-26T12:37:07.122Z,8.30
2022-11-26T12:39:51.857Z,8.30
2022-11-26T12:42:35.757Z,8.30
2022-11-26T12:45:32.489Z,8.30
2022-11-26T12:48:05.886Z,8.30
2022-11-26T12:51:07.983Z,8.40
2022-11-26T12:53:47.672Z,8.40
2022-11-26T12:56:25.077Z,8.50
2022-11-26T12:59:03.385Z,8.50
2022-11-26T13:01:32.697Z,8.60
2022-11-26T13:04:36.319Z,8.60
2022-11-26T13:07:33.782Z,8.60
2022-11-26T13:10:03.732Z,8.50
2022-11-26T13:13:00.370Z,8.40
2022-11-26T13:15:31.487Z,8.30
2022-11-26T13:18:00.851Z,8.20
2022-11-26T13:20:36.877Z,8.10
2022-11-26T13:23:35.878Z,8.10
2022-11-26T13:26:16.335Z,8.00
2022-11-26T13:28:43.209Z,8.00
2022-11-26T13:31:29.029Z,8.10
2022-11-26T13:34:03.885Z,8.00
2022-11-26T13:36:43.138Z,8.00
2022-11-26T13:39:41.919Z,8.00
2022-11-26T13:42:27.616Z,7.90
2022-11-26T13:45:56.125Z,7.90
2022-11-26T13:48:26.339Z,7.90
2022-11-26T13:51:20.108Z,7.80
2022-11-26T13:53:54.918Z,7.80
2022-11-26T13:56:26.688Z,7.90
2022-11-26T13:59:02.314Z,8.00
2022-11-26T14:01:37.605Z,8.00
2022-11-26T14:04:09.098Z,8.00
2022-11-26T14:06:36.722Z,8.10
2022-11-26T14:09:05.813Z,8.00
2022-11-26T14:11:42.319Z,7.90
2022-11-26T14:14:32.742Z,7.90
2022-11-26T14:17:03.007Z,7.80
2022-11-26T14:19:45.051Z,7.80
2022-11-26T14:22:11.948Z,7.70
2022-11-26T14:24:50.835Z,7.70
2022-11-26T14:27:40.443Z,7.70
2022-11-26T14:30:07.379Z,7.60
2022-11-26T14:33:00.276Z,7.50
2022-11-26T14:35:37.412Z,7.40
2022-11-26T14:38:23.843Z,7.30
2022-11-26T14:40:58.304Z,7.20
2022-11-26T14:43:25.712Z,7.10
2022-11-26T14:46:16.556Z,6.90
2022-11-26T14:48:46.420Z,6.80
2022-11-26T14:51:21.345Z,6.60
2022-11-26T14:53:49.901Z,6.50
2022-11-26T14:56:23.246Z,6.40
2022-11-26T14:58:54.091Z,6.30
2022-11-26T15:01:23.689Z,6.20
2022-11-26T15:04:04.332Z,6.20
2022-11-26T15:06:40.752Z,6.20
2022-11-26T15:09:19.173Z,6.10
2022-11-26T15:11:59.707Z,6.10
2022-11-26T15:14:37.199Z,6.00
2022-11-26T15:17:06.045Z,6.00
2022-11-26T15:19:36.608Z,5.90
2022-11-26T15:22:07.274Z,5.90
2022-11-26T15:24:34.783Z,5.90
2022-11-26T15:27:01.752Z,5.80
2022-11-26T15:29:31.433Z,5.70
2022-11-26T15:31:58.497Z,5.60
2022-11-26T15:34:26.735Z,5.50
2022-11-26T15:36:53.746Z,5.60
2022-11-26T15:39:29.365Z,5.40
2022-11-26T15:42:02.741Z,5.40
2022-11-26T15:44:31.997Z,5.40
2022-11-26T15:47:01.109Z,5.30
2022-11-26T15:49:40.331Z,5.30
2022-11-26T15:52:11.626Z,5.30
2022-11-26T15:55:12.028Z,5.30
2022-11-26T15:57:40.632Z,5.40
2022-11-26T16:00:24.003Z,5.40
2022-11-26T16:02:52.470Z,5.50
2022-11-26T16:05:38.757Z,5.60
2022-11-26T16:08:30.481Z,5.60
2022-11-26T16:11:05.656Z,5.70
2022-11-26T16:13:34.837Z,5.70
2022-11-26T16:16:01.815Z,5.70
2022-11-26T16:18:59.432Z,5.70
2022-11-26T16:21:32.801Z,5.70
2022-11-26T16:24:29.612Z,5.60
2022-11-26T16:27:05.136Z,5.50
2022-11-26T16:29:35.827Z,5.50
2022-11-26T16:32:03.360Z,5.40
2022-11-26T16:34:30.552Z,5.30
2022-11-26T16:37:24.363Z,5.20
2022-11-26T16:39:53.906Z,5.00
2022-11-26T16:42:23.736Z,4.90
2022-11-26T16:44:50.896Z,4.80
2022-11-26T16:47:28.231Z,4.70
2022-11-26T16:49:55.728Z,4.60
2022-11-26T16:52:22.865Z,4.60
2022-11-26T16:54:50.206Z,4.50
2022-11-26T16:57:21.372Z,4.50
2022-11-26T16:59:52.150Z,4.40
2022-11-26T17:02:23.647Z,4.30
2022-11-26T17:04:50.937Z,4.20
2022-11-26T17:07:22.683Z,4.20
2022-11-26T17:09:50.218Z,4.10
2022-11-26T17:12:19.408Z,4.10
2022-11-26T17:14:47.540Z,4.00
2022-11-26T17:17:20.484Z,3.90
2022-11-26T17:19:51.131Z,3.90
2022-11-26T17:22:18.153Z,3.90
2022-11-26T17:24:45.052Z,3.80
2022-11-26T17:27:16.955Z,3.80
2022-11-26T17:29:45.151Z,3.80
2022-11-26T17:32:17.516Z,3.80
2022-11-26T17:34:45.726Z,3.90
2022-11-26T17:37:28.474Z,3.90
2022-11-26T17:39:57.000Z,3.90
2022-11-26T17:42:24.910Z,4.00
2022-11-26T17:44:53.248Z,4.00
2022-11-26T17:47:23.126Z,3.90
2022-11-26T17:49:50.623Z,3.80
2022-11-26T17:52:18.270Z,3.80
2022-11-26T17:54:46.285Z,3.70
2022-11-26T17:57:15.818Z,3.60
2022-11-26T17:59:43.707Z,3.60
2022-11-26T18:02:11.220Z,3.50
2022-11-26T18:04:38.316Z,3.50
2022-11-26T18:07:15.600Z,3.40
2022-11-26T18:09:43.014Z,3.40
2022-11-26T18:12:24.894Z,3.30
2022-11-26T18:14:53.842Z,3.30
2022-11-26T18:17:21.343Z,3.20
2022-11-26T18:19:48.545Z,3.10
2022-11-26T18:22:18.300Z,3.10
2022-11-26T18:24:56.351Z,3.10
2022-11-26T18:27:26.937Z,3.10
2022-11-26T18:29:54.260Z,3.00
2022-11-26T18:32:21.398Z,2.90
2022-11-26T18:34:51.712Z,2.90
2022-11-26T18:37:18.712Z,2.80
2022-11-26T18:39:45.737Z,2.80
2022-11-26T18:45:00.699Z,2.80
2022-11-26T18:47:27.734Z,2.80
2022-11-26T18:49:54.815Z,2.70
2022-11-26T18:52:21.763Z,2.70
2022-11-26T18:54:48.754Z,2.80
2022-11-26T18:57:15.652Z,2.80
2022-11-26T18:59:42.981Z,2.80
2022-11-26T19:02:10.785Z,2.80
2022-11-26T19:04:39.080Z,2.80
2022-11-26T19:07:06.245Z,2.80
2022-11-26T19:09:33.239Z,2.70
2022-11-26T19:12:00.188Z,2.60
2022-11-26T19:14:27.317Z,2.50
2022-11-26T19:16:54.332Z,2.40
2022-11-26T19:19:21.816Z,2.40
2022-11-26T19:21:50.368Z,2.30
2022-11-26T19:24:17.473Z,2.40
2022-11-26T19:26:44.396Z,2.30
2022-11-26T19:29:12.918Z,2.30
2022-11-26T19:31:40.188Z,2.30
2022-11-26T19:34:12.440Z,2.20
2022-11-26T19:36:39.483Z,2.20
2022-11-26T19:39:07.472Z,2.20
2022-11-26T19:41:34.421Z,2.10
2022-11-26T19:44:07.198Z,2.10
2022-11-26T19:46:37.003Z,2.10
2022-11-26T19:49:04.011Z,2.10
2022-11-26T19:51:31.149Z,2.10
2022-11-26T19:53:58.108Z,2.00
2022-11-26T19:56:28.183Z,2.00
2022-11-26T19:58:57.872Z,2.00
2022-11-26T20:01:27.422Z,2.00
2022-11-26T20:03:54.634Z,2.00
2022-11-26T20:06:23.687Z,2.00
2022-11-26T20:08:50.785Z,1.90
2022-11-26T20:11:18.390Z,1.80
2022-11-26T20:13:47.124Z,1.80
2022-11-26T20:16:18.401Z,1.80
2022-11-26T20:18:46.056Z,1.70
2022-11-26T20:21:26.577Z,1.60
2022-11-26T20:23:55.074Z,1.50
2022-11-26T20:26:25.857Z,1.40
2022-11-26T20:28:53.897Z,1.40
2022-11-26T20:31:24.222Z,1.30
2022-11-26T20:33:52.948Z,1.30
2022-11-26T20:36:21.204Z,1.20
2022-11-26T20:38:55.293Z,1.30
2022-11-26T20:41:23.789Z,1.30
2022-11-26T20:43:55.082Z,1.30
2022-11-26T20:46:25.665Z,1.20
2022-11-26T20:48:53.045Z,1.20
2022-11-26T20:51:22.134Z,1.20
2022-11-26T20:53:51.051Z,1.20
2022-11-26T20:56:21.884Z,1.20
2022-11-26T20:58:50.067Z,1.20
2022-11-26T21:01:18.616Z,1.10
2022-11-26T21:03:46.174Z,1.10
2022-11-26T21:06:14.661Z,1.10
2022-11-26T21:08:42.112Z,1.10
2022-11-26T21:11:10.247Z,1.10
2022-11-26T21:13:38.856Z,1.10
2022-11-26T21:16:11.059Z,1.10
2022-11-26T21:18:38.744Z,1.00
2022-11-26T21:21:11.323Z,0.90
2022-11-26T21:23:40.226Z,1.00
2022-11-26T21:26:09.015Z,0.90
2022-11-26T21:28:36.210Z,0.90
2022-11-26T21:31:09.200Z,0.90
2022-11-26T21:33:37.056Z,0.90
2022-11-26T21:36:10.228Z,0.80
2022-11-26T21:38:38.143Z,0.80
2022-11-26T21:41:14.413Z,0.80
2022-11-26T21:43:42.604Z,0.70
2022-11-26T21:46:21.635Z,0.70
2022-11-26T21:48:49.456Z,0.70
2022-11-26T21:51:17.679Z,0.70
2022-11-26T21:53:47.006Z,0.70
2022-11-26T21:56:21.132Z,0.80
2022-11-26T21:58:49.057Z,0.70
2022-11-26T22:01:22.168Z,0.70
2022-11-26T22:03:51.633Z,0.70
2022-11-26T22:06:20.498Z,0.70
2022-11-26T22:08:48.224Z,0.70
2022-11-26T22:11:17.979Z,0.60
2022-11-26T22:13:45.688Z,0.60
2022-11-26T22:16:14.287Z,0.50
2022-11-26T22:18:42.921Z,0.40
2022-11-26T22:21:13.351Z,0.30
2022-11-26T22:23:40.589Z,0.30
2022-11-26T22:26:08.101Z,0.30
2022-11-26T22:28:35.293Z,0.30
2022-11-26T22:31:10.813Z,0.20
2022-11-26T22:33:38.256Z,0.20
2022-11-26T22:36:05.925Z,0.30
2022-11-26T22:38:33.537Z,0.30
2022-11-26T22:41:03.049Z,0.30
2022-11-26T22:43:31.045Z,0.30
2022-11-26T22:45:58.521Z,0.30
2022-11-26T22:48:25.805Z,0.30
2022-11-26T22:50:53.929Z,0.30
2022-11-26T22:53:21.909Z,0.30
2022-11-26T22:55:53.477Z,0.20
2022-11-26T22:58:20.739Z,0.20
2022-11-26T23:00:59.359Z,0.20
2022-11-26T23:03:28.219Z,0.20
2022-11-26T23:05:55.751Z,0.20
2022-11-26T23:08:22.901Z,0.20
2022-11-26T23:10:49.876Z,0.20
2022-11-26T23:13:17.624Z,0.20
2022-11-26T23:15:46.194Z,0.20
2022-11-26T23:18:14.867Z,0.10
2022-11-26T23:20:43.260Z,0.10
2022-11-26T23:23:10.488Z,0.10
2022-11-26T23:25:39.610Z,0.00
2022-11-26T23:28:06.998Z,-0.10
2022-11-26T23:30:35.108Z,-0.10
2022-11-26T23:33:02.154Z,-0.10
2022-11-26T23:35:29.393Z,-0.10
2022-11-26T23:37:56.385Z,-0.10
2022-11-26T23:40:23.315Z,-0.10
2022-11-26T23:42:50.313Z,-0.10
2022-11-26T23:45:19.619Z,-0.20
2022-11-26T23:47:46.532Z,-0.20
2022-11-26T23:50:13.591Z,-0.20
2022-11-26T23:52:40.594Z,-0.20
2022-11-26T23:55:08.260Z,-0.20
2022-11-26T23:57:35.272Z,-0.20
